Time;durP1;ratioP1;P1;durP2;ratioP2;P2;SDS_P1;SDS_P2;PMS_P1;PMS_P2;Temp;Humidity;BMP_temperature;BMP_pressure;BME280_temperature;BME280_humidity;BME280_pressure;Samples;Min_cycle;Max_cycle;Signal;HPM_P1;HPM_P2
2021/03/28 05:02:41;;;;;;;14.52;12.10;;;;;;;3.80;74.29;95904.47;5102583;23;20128;-85
2021/03/28 05:05:26;;;;;;;13.65;10.20;;;;;;;7.47;62.85;95896.75;4874086;29;20060;-81
2021/03/28 05:08:16;;;;;;;12.35;11.05;;;;;;;8.32;58.72;95900.56;4886504;29;20107;-81
2021/03/28 05:11:00;;;;;;;;;;;;;;;8.53;57.33;95900.47;4872845;29;20383;-81
2021/03/28 05:13:44;;;;;;;13.73;12.35;;;;;;;9.75;53.44;95898.81;4872986;29;19922;-80
2021/03/28 05:16:09;;;;;;;184.82;17.65;;;;;;;8.73;51.83;95907.28;4872488;29;20033;-81
2021/03/28 05:18:50;;;;;;;19.58;17.50;;;;;;;6.48;60.22;95910.03;4873058;29;20033;-86
2021/03/28 05:21:40;;;;;;;34.25;27.98;;;;;;;6.48;61.40;95914.34;4885735;29;20463;-78
2021/03/28 05:24:37;;;;;;;15.70;12.98;;;;;;;6.41;60.70;95910.63;4865720;29;20094;-77
2021/03/28 05:27:29;;;;;;;12.55;10.10;;;;;;;6.12;62.08;95920.63;4875268;29;20056;-76
2021/03/28 05:30:13;;;;;;;10.82;9.82;;;;;;;6.27;61.39;95916.84;4874461;29;20025;-76
2021/03/28 05:33:00;;;;;;;14.77;10.35;;;;;;;6.66;60.90;95913.69;4890507;29;20472;-76
2021/03/28 05:35:44;;;;;;;12.43;11.23;;;;;;;7.51;59.23;95917.00;4876893;29;20028;-75
2021/03/28 05:38:34;;;;;;;14.13;10.10;;;;;;;7.55;59.20;95917.53;4874377;29;20048;-75
2021/03/28 05:41:18;;;;;;;14.85;13.35;;;;;;;8.00;58.85;95923.13;4875017;29;20025;-74
2021/03/28 05:44:05;;;;;;;14.48;13.00;;;;;;;8.56;56.13;95920.88;4876411;29;20499;-74
2021/03/28 05:46:53;;;;;;;13.00;11.57;;;;;;;8.67;54.83;95923.34;4873834;29;20037;-73
2021/03/28 05:50:06;;;;;;;11.10;10.07;;;;;;;8.60;55.05;95930.81;4877780;29;20036;-76
2021/03/28 05:52:40;;;;;;;10.88;9.77;;;;;;;8.69;54.76;95932.56;4838184;29;20495;-74
2021/03/28 05:55:12;;;;;;;11.63;9.93;;;;;;;9.93;52.84;95921.19;4875741;29;20033;-74
2021/03/28 05:58:03;;;;;;;14.95;13.45;;;;;;;11.26;51.69;95927.44;4875264;29;20024;-74
2021/03/28 06:00:38;;;;;;;16.85;13.00;;;;;;;9.74;54.79;95935.97;4875618;29;20033;-74
2021/03/28 06:03:19;;;;;;;13.73;11.27;;;;;;;9.23;53.29;95933.78;4889446;29;20021;-73
2021/03/28 06:06:03;;;;;;;12.05;10.85;;;;;;;9.09;54.20;95944.53;4875849;29;20060;-73
2021/03/28 06:08:47;;;;;;;16.63;13.77;;;;;;;9.59;55.63;95948.56;4874645;29;20073;-73
2021/03/28 06:11:27;;;;;;;13.98;12.63;;;;;;;10.02;55.04;95946.22;4875594;29;20037;-73
2021/03/28 06:14:14;;;;;;;14.15;12.73;;;;;;;10.16;54.67;95947.56;4871149;29;20022;-73
2021/03/28 06:16:42;;;;;;;13.63;11.20;;;;;;;14.10;44.89;95928.78;4867360;29;20030;-73
2021/03/28 06:19:17;;;;;;;11.38;10.25;;;;;;;15.51;39.21;95930.28;4873658;29;20361;-74
2021/03/28 06:22:01;;;;;;;13.38;12.10;;;;;;;11.67;46.50;95944.91;4874640;29;20063;-74
2021/03/28 06:24:43;;;;;;;14.68;13.27;;;;;;;14.88;40.26;95939.19;4875251;29;20036;-73
2021/03/28 06:27:49;;;;;;;14.43;13.13;;;;;;;14.56;41.33;95936.75;4888586;29;20060;-73
2021/03/28 06:30:47;;;;;;;11.93;10.93;;;;;;;15.40;40.43;95931.47;4865128;29;20053;-74
2021/03/28 06:33:31;;;;;;;10.77;9.88;;;;;;;16.82;37.39;95935.50;4873765;29;20464;-74
2021/03/28 06:36:28;;;;;;;12.52;10.32;;;;;;;18.55;34.22;95937.53;4869352;29;20048;-74
2021/03/28 06:39:03;;;;;;;11.90;10.90;;;;;;;19.50;32.71;95936.56;4870560;29;20043;-74
2021/03/28 06:41:39;;;;;;;11.52;10.52;;;;;;;19.93;32.51;95945.66;4874614;29;20506;-74
2021/03/28 06:44:32;;;;;;;11.13;10.23;;;;;;;20.00;32.87;95944.63;4871799;29;20085;-74
2021/03/28 06:47:35;;;;;;;10.43;9.52;;;;;;;20.45;32.28;95942.94;4873989;29;20025;-73
2021/03/28 06:50:22;;;;;;;11.18;10.18;;;;;;;21.27;31.55;95944.03;4875145;29;20395;-74
2021/03/28 06:52:50;;;;;;;10.77;9.88;;;;;;;21.14;31.21;95950.19;4872667;29;20044;-73
2021/03/28 06:55:39;;;;;;;10.73;9.82;;;;;;;21.31;32.31;95945.22;4874755;29;20029;-73
2021/03/28 06:58:30;;;;;;;10.60;9.70;;;;;;;21.73;31.18;95944.53;4870952;29;20029;-73
2021/03/28 07:01:10;;;;;;;12.00;10.80;;;;;;;20.54;31.84;95950.63;4869369;29;20049;-73
2021/03/28 07:03:50;;;;;;;12.68;11.55;;;;;;;20.04;32.12;95950.28;4870595;29;20680;-72
2021/03/28 07:06:22;;;;;;;14.70;13.10;;;;;;;20.67;32.92;95950.59;4874051;29;20025;-73
2021/03/28 07:09:13;;;;;;;14.43;12.98;;;;;;;19.50;34.48;95955.75;4870563;29;20123;-73
2021/03/28 07:11:50;;;;;;;15.27;13.88;;;;;;;20.39;32.63;95950.84;4871818;29;20679;-73
2021/03/28 07:14:40;;;;;;;14.00;12.82;;;;;;;22.98;30.48;95949.34;4869535;29;20539;-73
2021/03/28 07:17:21;;;;;;;13.63;12.32;;;;;;;23.33;29.47;95953.97;4871465;29;20029;-74
2021/03/28 07:20:08;;;;;;;14.07;12.77;;;;;;;23.80;29.93;95953.06;4872608;29;20099;-74
2021/03/28 07:22:46;;;;;;;12.30;11.10;;;;;;;23.17;29.18;95949.31;4862292;29;20101;-74
2021/03/28 07:25:27;;;;;;;12.93;11.18;;;;;;;24.08;27.07;95947.91;4872416;29;20028;-74
2021/03/28 07:28:13;;;;;;;12.90;11.27;;;;;;;23.52;27.68;95952.91;4872052;29;20029;-74
2021/03/28 07:30:47;;;;;;;11.38;9.90;;;;;;;21.50;30.85;95954.81;4871790;29;20486;-74
2021/03/28 07:33:54;;;;;;;12.98;10.82;;;;;;;22.48;28.56;95950.53;4872894;29;20040;-74
2021/03/28 07:36:35;;;;;;;10.88;9.80;;;;;;;23.33;29.01;95957.44;4866562;29;20056;-75
2021/03/28 07:39:58;;;;;;;11.52;9.30;;;;;;;22.89;29.21;95963.88;4869439;29;20106;-75
2021/03/28 07:42:48;;;;;;;11.05;8.90;;;;;;;22.00;29.28;95966.22;4824736;29;20117;-75
2021/03/28 07:45:25;;;;;;;11.02;9.77;;;;;;;20.11;32.02;95966.88;4805146;29;20131;-74
2021/03/28 07:48:28;;;;;;;9.60;8.52;;;;;;;17.22;37.19;95970.75;4845654;29;20038;-74
2021/03/28 07:50:53;;;;;;;12.25;10.00;;;;;;;16.90;38.84;95975.63;4885880;29;20476;-73
2021/03/28 07:53:50;;;;;;;10.48;9.43;;;;;;;16.36;39.23;95978.56;4870688;29;20043;-74
2021/03/28 07:56:20;;;;;;;11.77;10.18;;;;;;;16.23;39.08;95979.22;4870550;29;20493;-74
2021/03/28 07:58:52;;;;;;;11.32;9.50;;;;;;;15.96;38.96;95984.25;4887061;29;20024;-74
2021/03/28 08:01:17;;;;;;;10.60;9.38;;;;;;;16.21;39.93;95994.25;4871211;29;20075;-74
2021/03/28 08:03:46;;;;;;;10.02;9.02;;;;;;;16.15;39.49;95987.13;4872544;29;20033;-74
2021/03/28 08:06:46;;;;;;;10.68;9.20;;;;;;;16.01;39.48;95984.50;4872139;29;20071;-74
2021/03/28 08:09:34;;;;;;;11.43;10.25;;;;;;;15.86;41.12;95981.84;4827224;29;20107;-74
2021/03/28 08:12:17;;;;;;;10.75;9.75;;;;;;;14.96;41.74;95977.47;4872229;29;20036;-74
2021/03/28 08:15:20;;;;;;;12.93;11.15;;;;;;;16.12;39.80;95990.09;4885613;29;20029;-74
2021/03/28 08:18:17;;;;;;;10.93;9.82;;;;;;;16.07;39.10;95982.00;4884911;29;20032;-74
2021/03/28 08:20:55;;;;;;;13.60;11.90;;;;;;;16.56;40.15;95986.72;4870646;29;20055;-73
2021/03/28 08:23:29;;;;;;;11.05;9.95;;;;;;;16.24;40.04;95991.28;4870128;29;20056;-75
2021/03/28 08:26:13;;;;;;;11.90;10.70;;;;;;;15.44;39.67;95992.00;4870583;29;20036;-74
2021/03/28 08:28:48;;;;;;;15.88;11.63;;;;;;;15.31;41.61;95992.56;4883892;29;20033;-74
2021/03/28 08:31:34;;;;;;;16.85;10.68;;;;;;;15.19;41.96;95994.75;4881756;29;20466;-74
2021/03/28 08:34:24;;;;;;;11.30;9.93;;;;;;;14.86;41.29;95987.31;4870753;29;20037;-74
2021/03/28 08:37:07;;;;;;;12.63;10.25;;;;;;;14.77;41.70;95992.53;4872617;29;20039;-73
2021/03/28 08:39:35;;;;;;;14.88;10.93;;;;;;;15.19;42.12;95989.53;4869057;29;20029;-74
2021/03/28 08:42:03;;;;;;;13.68;10.85;;;;;;;15.62;42.37;95995.94;4872564;29;20030;-74
2021/03/28 08:44:51;;;;;;;12.80;11.50;;;;;;;15.49;42.19;95993.13;4870846;29;20522;-74
2021/03/28 08:47:16;;;;;;;14.25;11.43;;;;;;;15.80;42.42;95996.44;4885190;29;20049;-73
2021/03/28 08:49:47;;;;;;;20.50;11.60;;;;;;;15.50;41.07;95991.31;4869841;29;20824;-73
2021/03/28 08:52:50;;;;;;;13.40;12.00;;;;;;;15.20;43.74;95998.19;4866414;29;20032;-74
2021/03/28 08:55:34;;;;;;;16.88;11.73;;;;;;;15.90;42.69;95998.00;4870105;29;20033;-73
2021/03/28 08:58:06;;;;;;;16.00;12.10;;;;;;;16.21;41.70;95996.06;4862863;29;20418;-74
2021/03/28 09:00:40;;;;;;;17.98;11.80;;;;;;;16.67;41.75;95984.44;4851691;29;20040;-73
2021/03/28 09:03:22;;;;;;;23.38;14.35;;;;;;;16.30;41.96;95993.19;4853914;29;20743;-74
2021/03/28 09:05:52;;;;;;;18.52;12.93;;;;;;;17.22;41.35;95988.28;4882475;29;20061;-74
2021/03/28 09:08:24;;;;;;;16.35;12.23;;;;;;;17.49;41.24;95987.56;4868559;29;20071;-74
2021/03/28 09:11:04;;;;;;;14.93;12.63;;;;;;;17.18;41.40;95979.16;4870211;29;20021;-74
2021/03/28 09:13:51;;;;;;;14.50;12.98;;;;;;;17.30;41.34;95983.75;4868679;29;20056;-74
2021/03/28 09:16:29;;;;;;;16.83;12.43;;;;;;;17.54;41.33;95979.94;4869108;29;20041;-74
2021/03/28 09:19:32;;;;;;;16.23;12.70;;;;;;;17.43;41.75;95983.06;4862361;29;20609;-75
2021/03/28 09:22:13;;;;;;;17.70;12.65;;;;;;;17.31;42.41;95974.88;4865985;29;20411;-74
2021/03/28 09:24:44;;;;;;;13.45;12.23;;;;;;;17.57;41.36;95970.91;4850890;29;20042;-74
2021/03/28 09:27:30;;;;;;;16.98;11.95;;;;;;;17.51;42.46;95974.25;4881981;29;20073;-74
2021/03/28 09:30:14;;;;;;;15.68;11.98;;;;;;;17.89;41.28;95959.88;4868515;29;20041;-74
2021/03/28 09:32:45;;;;;;;14.07;12.52;;;;;;;17.81;41.41;95965.28;4870432;29;20143;-74
2021/03/28 09:35:36;;;;;;;13.43;11.88;;;;;;;18.01;41.58;95965.44;4867245;29;20025;-76
2021/03/28 09:38:39;;;;;;;17.55;11.00;;;;;;;18.11;39.94;95958.81;4869243;29;20029;-75
2021/03/28 09:41:14;;;;;;;14.25;11.80;;;;;;;18.04;40.29;95951.94;4868820;29;20438;-75
2021/03/28 09:43:45;;;;;;;18.50;12.25;;;;;;;18.36;41.46;95959.19;4851979;29;20025;-74
2021/03/28 09:47:04;;;;;;;12.63;11.43;;;;;;;18.32;40.09;95945.66;4853395;29;20025;-75
2021/03/28 09:49:30;;;;;;;13.30;10.30;;;;;;;18.26;39.06;95941.19;4819400;29;20034;-75
2021/03/28 09:52:29;;;;;;;13.25;10.68;;;;;;;18.41;40.56;95941.84;4858043;29;20048;-75
2021/03/28 09:55:23;;;;;;;10.43;9.10;;;;;;;18.66;39.45;95944.00;4868334;29;20045;-75
2021/03/28 09:58:01;;;;;;;9.30;8.32;;;;;;;18.83;40.02;95930.34;4883876;29;20040;-75
2021/03/28 10:00:51;;;;;;;9.43;8.60;;;;;;;18.75;39.09;95945.47;4882277;29;20029;-76
2021/03/28 10:03:52;;;;;;;9.30;8.13;;;;;;;19.11;40.24;95937.28;4868404;29;20467;-74
2021/03/28 10:06:19;;;;;;;9.25;7.43;;;;;;;19.32;40.04;95935.31;4857597;29;20064;-74
2021/03/28 10:08:50;;;;;;;11.52;8.40;;;;;;;19.40;40.40;95942.22;4850059;29;20052;-74
2021/03/28 10:11:52;;;;;;;10.90;8.30;;;;;;;18.83;40.44;95940.03;4853139;29;20032;-76
2021/03/28 10:14:41;;;;;;;12.50;7.78;;;;;;;18.81;40.47;95931.56;4839631;29;20044;-77
2021/03/28 10:17:44;;;;;;;9.88;7.97;;;;;;;18.71;40.56;95937.19;4883889;29;20529;-75
2021/03/28 10:20:28;;;;;;;10.20;7.63;;;;;;;18.46;41.79;95938.66;4856103;29;20120;-75
2021/03/28 10:23:03;;;;;;;8.48;7.63;;;;;;;18.09;41.11;95942.47;4847239;29;20040;-74
2021/03/28 10:25:35;;;;;;;8.60;7.80;;;;;;;17.61;42.50;95943.34;4871015;29;20021;-76
2021/03/28 10:28:20;;;;;;;9.00;6.97;;;;;;;18.12;42.04;95942.09;4871166;29;20040;-77
2021/03/28 10:31:00;;;;;;;8.55;7.70;;;;;;;17.94;42.58;95933.91;4871737;29;20028;-75
2021/03/28 10:33:41;;;;;;;12.60;8.32;;;;;;;17.50;43.44;95941.22;4884897;29;20033;-77
2021/03/28 10:36:35;;;;;;;9.65;7.93;;;;;;;18.06;42.09;95932.38;4871105;29;20039;-77
2021/03/28 10:39:19;;;;;;;9.27;8.57;;;;;;;17.66;42.63;95938.34;4856114;29;20036;-76
2021/03/28 10:41:49;;;;;;;9.52;8.63;;;;;;;18.26;42.40;95933.31;4863606;29;20052;-76
2021/03/28 10:44:20;;;;;;;9.25;8.40;;;;;;;18.16;41.88;95938.09;4871375;29;20028;-75
2021/03/28 10:47:23;;;;;;;9.23;8.38;;;;;;;17.70;42.62;95939.56;4886437;29;20025;-75
2021/03/28 10:50:10;;;;;;;11.98;9.27;;;;;;;17.80;42.72;95930.38;4871166;29;20053;-76
2021/03/28 10:52:41;;;;;;;8.80;7.90;;;;;;;17.59;43.74;95943.53;4871335;29;20051;-77
2021/03/28 10:55:15;;;;;;;24.50;8.68;;;;;;;17.44;44.22;95947.19;4873683;29;20443;-75
2021/03/28 10:58:18;;;;;;;11.75;8.52;;;;;;;17.19;44.99;95950.19;4869520;29;20064;-76
2021/03/28 11:00:48;;;;;;;9.00;7.95;;;;;;;17.73;42.73;95939.19;4871491;29;20049;-75
2021/03/28 11:03:56;;;;;;;11.85;7.80;;;;;;;18.21;43.90;95940.94;4864271;29;20563;-75
2021/03/28 11:06:39;;;;;;;8.82;7.93;;;;;;;17.76;43.57;95942.25;4852148;29;20049;-76
2021/03/28 11:09:24;;;;;;;8.82;8.02;;;;;;;18.08;42.67;95935.59;4885944;29;20063;-75
2021/03/28 11:12:04;;;;;;;8.45;7.65;;;;;;;18.05;43.09;95938.63;4870616;29;20032;-78
2021/03/28 11:14:52;;;;;;;8.25;7.40;;;;;;;18.17;43.35;95936.28;4871557;29;20141;-77
2021/03/28 11:17:42;;;;;;;9.48;8.48;;;;;;;18.40;43.72;95932.34;4870945;29;20033;-77
2021/03/28 11:20:42;;;;;;;8.80;8.00;;;;;;;18.33;43.01;95934.13;4862988;29;20037;-75
2021/03/28 11:23:46;;;;;;;11.45;8.80;;;;;;;18.56;45.16;95938.34;4863570;29;20557;-78
2021/03/28 11:26:14;;;;;;;10.63;9.02;;;;;;;18.26;46.95;95938.56;4857595;29;20017;-78
2021/03/28 11:29:08;;;;;;;10.02;9.10;;;;;;;18.61;46.97;95938.53;4868518;29;20042;-77
2021/03/28 11:31:37;;;;;;;13.50;9.55;;;;;;;18.46;46.46;95940.47;4844343;29;20131;-76
2021/03/28 11:34:17;;;;;;;11.43;9.38;;;;;;;18.42;47.53;95943.50;4839645;29;20044;-78
2021/03/28 11:37:06;;;;;;;15.60;11.25;;;;;;;17.19;49.47;95952.81;4850232;29;20060;-78
2021/03/28 11:39:35;;;;;;;11.40;10.15;;;;;;;17.89;49.04;95941.53;4868242;29;20029;-77
2021/03/28 11:42:00;;;;;;;12.20;9.90;;;;;;;17.80;48.35;95946.13;4839317;29;20045;-77
2021/03/28 11:44:27;;;;;;;14.02;10.55;;;;;;;17.61;48.51;95938.09;4863071;29;20032;-77
2021/03/28 11:47:02;;;;;;;11.57;10.45;;;;;;;17.41;49.11;95951.00;4866164;29;20033;-77
2021/03/28 11:49:31;;;;;;;12.10;10.73;;;;;;;17.44;49.26;95949.81;4862869;29;20419;-77
2021/03/28 11:51:56;;;;;;;17.20;11.15;;;;;;;16.93;49.93;95946.47;4869088;29;20107;-79
2021/03/28 11:54:23;;;;;;;11.13;10.23;;;;;;;17.38;49.43;95946.13;4866592;29;20052;-78
2021/03/28 11:57:03;;;;;;;13.13;11.77;;;;;;;16.57;51.56;95947.28;4855155;29;20056;-80
2021/03/28 11:59:43;;;;;;;12.75;11.52;;;;;;;17.23;50.02;95954.06;4868074;29;20117;-79
2021/03/28 12:02:11;;;;;;;12.55;11.30;;;;;;;17.25;50.39;95946.00;4868718;29;20400;-79
2021/03/28 12:04:37;;;;;;;14.48;11.38;;;;;;;16.97;51.05;95940.69;4866516;29;20024;-78
2021/03/28 12:07:23;;;;;;;12.93;11.82;;;;;;;16.67;52.33;95937.34;4866345;29;20033;-79
2021/03/28 12:10:16;;;;;;;18.95;11.18;;;;;;;16.66;51.64;95938.31;4869653;29;20052;-78
2021/03/28 12:12:47;;;;;;;11.75;10.82;;;;;;;17.13;50.68;95940.47;4886758;29;20040;-81
2021/03/28 12:15:46;;;;;;;13.43;12.15;;;;;;;17.24;50.12;95942.56;4883138;29;20032;-77
2021/03/28 12:18:21;;;;;;;13.40;12.10;;;;;;;16.98;49.73;95937.09;4884664;29;20492;-79
2021/03/28 12:20:47;;;;;;;13.00;11.90;;;;;;;16.63;50.73;95932.69;4869378;29;20037;-80
2021/03/28 12:23:23;;;;;;;13.15;11.77;;;;;;;16.70;51.00;95944.00;4849820;29;20026;-79
2021/03/28 12:26:19;;;;;;;13.88;12.48;;;;;;;16.40;51.08;95934.56;4886135;29;20033;-78
2021/03/28 12:28:46;;;;;;;14.38;12.98;;;;;;;16.01;51.85;95940.06;4863001;29;20044;-77
2021/03/28 12:31:35;;;;;;;14.63;13.20;;;;;;;16.18;51.58;95929.25;4871675;29;20165;-78
2021/03/28 12:34:19;;;;;;;17.35;13.32;;;;;;;16.58;50.93;95927.16;4862722;29;20055;-82
2021/03/28 12:37:12;;;;;;;15.13;13.63;;;;;;;16.49;51.33;95931.66;4866803;29;20510;-79
2021/03/28 12:39:41;;;;;;;15.50;13.85;;;;;;;16.31;51.13;95928.63;4883528;29;20023;-80
2021/03/28 12:42:18;;;;;;;15.93;14.52;;;;;;;16.28;51.30;95928.97;4870574;29;20407;-77
2021/03/28 12:44:51;;;;;;;15.95;14.05;;;;;;;16.14;51.87;95924.59;4869844;29;20033;-81
2021/03/28 12:47:19;;;;;;;16.02;14.65;;;;;;;16.27;51.98;95919.53;4855405;29;20037;-77
2021/03/28 12:49:49;;;;;;;16.33;14.73;;;;;;;15.97;52.11;95917.91;4868909;29;20097;-83
2021/03/28 12:52:16;;;;;;;;;;;;;;;16.11;51.38;95917.91;4887230;29;20024;-79
2021/03/28 12:54:52;;;;;;;16.38;14.73;;;;;;;16.05;51.42;95912.59;4859092;29;20007;-81
2021/03/28 12:57:56;;;;;;;20.50;18.40;;;;;;;15.88;51.38;95919.78;4871059;29;20037;-79
2021/03/28 13:00:40;;;;;;;22.60;19.42;;;;;;;15.78;51.40;95907.00;4883251;29;20025;-79
2021/03/28 13:03:30;;;;;;;20.60;18.48;;;;;;;15.96;51.46;95914.47;4867908;29;20418;-82
2021/03/28 13:06:22;;;;;;;21.70;16.85;;;;;;;15.68;51.58;95916.06;4869342;29;20048;-81
2021/03/28 13:08:51;;;;;;;17.60;15.90;;;;;;;15.63;51.65;95916.63;4881228;29;20418;-80
2021/03/28 13:11:25;;;;;;;16.42;15.07;;;;;;;15.64;51.35;95901.75;4869236;29;20033;-80
2021/03/28 13:13:50;;;;;;;15.30;14.02;;;;;;;15.52;51.57;95911.81;4869997;29;20056;-79
2021/03/28 13:16:30;;;;;;;17.50;15.70;;;;;;;15.36;52.00;95905.88;4853029;29;20487;-77
2021/03/28 13:18:57;;;;;;;15.20;13.80;;;;;;;15.31;51.93;95915.06;4866039;29;20746;-80
2021/03/28 13:21:32;;;;;;;17.52;15.65;;;;;;;15.14;52.29;95908.34;4868779;29;20487;-80
2021/03/28 13:24:14;;;;;;;16.45;14.75;;;;;;;15.18;52.99;95906.22;4852773;29;20039;-81
2021/03/28 13:27:09;;;;;;;16.65;15.05;;;;;;;15.28;52.71;95907.56;4862339;29;20035;-81
2021/03/28 13:29:37;;;;;;;17.02;15.35;;;;;;;15.17;52.85;95905.41;4860191;29;20136;-78
2021/03/28 13:32:05;;;;;;;18.20;16.15;;;;;;;15.19;53.03;95902.59;4854649;29;20029;-79
2021/03/28 13:34:32;;;;;;;16.98;15.20;;;;;;;15.28;53.65;95904.97;4852581;29;20060;-80
2021/03/28 13:37:04;;;;;;;13.60;12.02;;;;;;;15.20;52.72;95912.88;4869870;29;20412;-82
2021/03/28 13:39:30;;;;;;;13.38;12.13;;;;;;;15.28;52.39;95902.34;4880288;29;20033;-79
2021/03/28 13:41:58;;;;;;;14.15;12.55;;;;;;;15.24;52.93;95903.72;4853758;29;20052;-81
2021/03/28 13:44:27;;;;;;;21.35;13.32;;;;;;;15.36;52.50;95901.47;4870345;29;20029;-79
2021/03/28 13:46:52;;;;;;;13.90;12.48;;;;;;;15.23;52.49;95896.88;4852763;29;20120;-81
2021/03/28 13:49:43;;;;;;;16.80;15.10;;;;;;;15.21;53.31;95904.06;4870716;29;20124;-78
2021/03/28 13:52:14;;;;;;;13.43;12.32;;;;;;;15.16;52.54;95900.34;4884042;29;20470;-75
2021/03/28 13:54:42;;;;;;;12.88;11.77;;;;;;;14.94;53.21;95904.59;4896242;29;20109;-81
2021/03/28 13:57:12;;;;;;;14.95;11.80;;;;;;;15.22;53.39;95900.44;4884425;29;20040;-83
2021/03/28 13:59:37;;;;;;;12.13;10.93;;;;;;;15.18;53.77;95904.41;4865006;29;20029;-80
2021/03/28 14:02:10;;;;;;;12.73;11.55;;;;;;;15.24;52.98;95911.53;4884786;29;20052;-80
2021/03/28 14:04:40;;;;;;;11.65;10.63;;;;;;;15.01;53.62;95909.91;4865093;29;20061;-77
2021/03/28 14:07:15;;;;;;;10.95;10.05;;;;;;;14.95;54.12;95916.66;4866206;29;20111;-79
2021/03/28 14:09:54;;;;;;;10.73;9.90;;;;;;;14.63;54.30;95924.66;4882682;29;20534;-80
2021/03/28 14:12:25;;;;;;;12.23;9.43;;;;;;;14.51;54.83;95932.03;4895893;29;20081;-81
2021/03/28 14:15:01;;;;;;;10.98;9.70;;;;;;;14.33;54.78;95938.47;4884500;29;20041;-86
2021/03/28 14:17:28;;;;;;;10.38;9.43;;;;;;;14.18;54.84;95940.97;4880189;29;20116;-76
2021/03/28 14:20:16;;;;;;;11.02;10.02;;;;;;;13.90;55.34;95935.34;4864859;29;20104;-83
2021/03/28 14:22:52;;;;;;;10.90;9.85;;;;;;;13.73;55.03;95938.97;4880908;29;20088;-83
2021/03/28 14:25:34;;;;;;;11.45;10.38;;;;;;;13.65;55.33;95931.16;4883660;29;20039;-83
2021/03/28 14:28:25;;;;;;;13.55;11.35;;;;;;;13.50;56.21;95943.22;4883732;29;20491;-83
2021/03/28 14:31:08;;;;;;;12.80;11.65;;;;;;;13.47;57.47;95951.34;4875977;29;20037;-82
2021/03/28 14:34:02;;;;;;;15.73;14.23;;;;;;;13.36;57.10;95949.88;4877347;29;20093;-80
2021/03/28 14:37:10;;;;;;;17.45;13.35;;;;;;;13.54;57.32;95944.53;4897905;29;20136;-83
2021/03/28 14:39:47;;;;;;;15.02;13.52;;;;;;;13.57;56.91;95942.41;4889456;29;20244;-83
2021/03/28 14:42:20;;;;;;;13.32;12.23;;;;;;;13.61;56.43;95963.72;4880185;29;20110;-83
2021/03/28 14:45:03;;;;;;;12.68;11.35;;;;;;;13.38;56.42;95960.16;4882602;29;20024;-81
2021/03/28 14:47:47;;;;;;;15.00;12.15;;;;;;;13.38;56.42;95962.75;4882921;29;20047;-88
2021/03/28 14:50:35;;;;;;;13.50;12.20;;;;;;;13.38;57.50;95963.56;4883216;29;20032;-82
2021/03/28 14:53:04;;;;;;;13.10;11.90;;;;;;;13.50;57.16;95966.63;4882633;29;20609;-78
2021/03/28 14:55:53;;;;;;;13.80;12.48;;;;;;;13.55;57.34;95959.97;4881731;29;20080;-77
2021/03/28 14:59:02;;;;;;;11.70;10.57;;;;;;;13.64;56.71;95956.41;4867905;29;20047;-81
2021/03/28 15:01:48;;;;;;;11.23;10.02;;;;;;;13.76;56.01;95956.84;4850220;29;20057;-82
2021/03/28 15:04:51;;;;;;;10.93;9.77;;;;;;;13.57;56.45;95959.81;4851462;29;20044;-80
2021/03/28 15:07:44;;;;;;;11.20;9.77;;;;;;;13.50;55.93;95962.25;4884973;29;20097;-81
2021/03/28 15:10:15;;;;;;;10.77;9.68;;;;;;;13.47;56.16;95962.59;4880156;29;20572;-79
2021/03/28 15:12:48;;;;;;;11.88;10.35;;;;;;;13.44;56.80;95960.31;4883673;29;20029;-80
2021/03/28 15:15:31;;;;;;;13.93;11.45;;;;;;;13.19;56.94;95951.69;4881124;29;20116;-83
2021/03/28 15:17:57;;;;;;;12.20;11.10;;;;;;;13.11;57.11;95956.88;4878514;29;20036;-81
2021/03/28 15:20:29;;;;;;;11.93;10.77;;;;;;;12.78;57.72;95939.56;4874335;29;20121;-81
2021/03/28 15:23:15;;;;;;;12.65;10.88;;;;;;;12.77;58.45;95948.34;4874126;29;20095;-79
2021/03/28 15:26:21;;;;;;;11.82;10.68;;;;;;;12.88;57.80;95958.44;4848702;29;20503;-79
2021/03/28 15:28:49;;;;;;;10.88;9.85;;;;;;;12.75;58.21;95952.09;4856889;29;20044;-80
2021/03/28 15:31:32;;;;;;;10.30;9.30;;;;;;;12.55;58.89;95954.94;4861832;29;20040;-81
2021/03/28 15:34:08;;;;;;;10.48;9.52;;;;;;;12.48;59.60;95958.34;4879797;29;20065;-79
2021/03/28 15:36:55;;;;;;;10.57;9.70;;;;;;;12.54;58.61;95960.28;4878967;29;20029;-81
2021/03/28 15:39:48;;;;;;;10.15;9.07;;;;;;;12.45;58.83;95958.66;4874900;29;20041;-84
2021/03/28 15:42:22;;;;;;;10.05;9.15;;;;;;;12.32;58.93;95964.28;4875757;29;20135;-84
2021/03/28 15:45:03;;;;;;;12.02;8.57;;;;;;;12.17;58.84;95962.44;4879433;29;20131;-80
2021/03/28 15:47:47;;;;;;;11.63;10.35;;;;;;;12.10;59.92;95967.44;4875410;29;20159;-80
2021/03/28 15:50:18;;;;;;;20.65;16.38;;;;;;;12.23;59.59;95961.81;4872231;29;20041;-80
2021/03/28 15:53:14;;;;;;;10.70;9.68;;;;;;;12.11;60.27;95966.44;4891477;29;20563;-81
2021/03/28 15:56:01;;;;;;;10.98;9.70;;;;;;;11.96;61.09;95974.00;4876153;29;20033;-83
2021/03/28 15:58:45;;;;;;;9.82;8.82;;;;;;;11.96;60.47;95974.00;4877883;29;20037;-79
2021/03/28 16:01:38;;;;;;;10.60;8.32;;;;;;;11.89;60.45;95972.97;4877961;29;20048;-81
2021/03/28 16:04:42;;;;;;;8.18;7.38;;;;;;;11.83;60.53;95976.19;4880357;29;20450;-79
2021/03/28 16:07:39;;;;;;;7.93;7.13;;;;;;;11.76;60.50;95976.94;4882310;29;20029;-79
2021/03/28 16:10:36;;;;;;;25.23;7.68;;;;;;;11.78;60.46;95970.66;4877499;29;20040;-80
2021/03/28 16:13:20;;;;;;;10.77;6.95;;;;;;;11.67;60.79;95977.81;4877163;29;20032;-79
2021/03/28 16:16:23;;;;;;;7.03;6.32;;;;;;;11.64;61.03;95969.41;4879621;29;20506;-79
2021/03/28 16:18:51;;;;;;;10.18;9.23;;;;;;;11.72;60.86;95971.25;4863434;29;20539;-81
2021/03/28 16:21:38;;;;;;;9.15;6.78;;;;;;;11.58;61.07;95975.19;4877362;29;20077;-85
2021/03/28 16:24:11;;;;;;;6.72;5.78;;;;;;;11.50;60.60;95974.28;4880795;29;20047;-83
2021/03/28 16:26:46;;;;;;;7.22;6.20;;;;;;;11.45;60.66;95972.16;4861858;29;20506;-83
2021/03/28 16:29:31;;;;;;;6.22;5.72;;;;;;;11.39;61.12;95974.56;4880270;29;20052;-84
2021/03/28 16:32:18;;;;;;;10.10;6.18;;;;;;;11.37;60.83;95979.06;4893219;29;20029;-81
2021/03/28 16:34:54;;;;;;;6.32;5.70;;;;;;;11.27;60.62;95970.56;4878799;29;20033;-82
2021/03/28 16:37:28;;;;;;;6.43;5.45;;;;;;;11.17;61.71;95981.03;4894177;29;20039;-80
2021/03/28 16:40:06;;;;;;;7.10;5.20;;;;;;;11.16;61.49;95976.78;4877139;29;20045;-82
2021/03/28 16:42:35;;;;;;;6.18;5.13;;;;;;;11.03;61.73;95974.56;4865435;29;20025;-82
2021/03/28 16:45:04;;;;;;;5.47;4.77;;;;;;;11.06;61.32;95979.47;4871697;29;20096;-81
2021/03/28 16:47:31;;;;;;;12.23;6.17;;;;;;;11.03;61.78;95981.53;4873017;29;20084;-82
2021/03/28 16:50:00;;;;;;;8.32;5.38;;;;;;;10.93;61.87;95981.59;4877341;29;20369;-83
2021/03/28 16:52:34;;;;;;;6.85;5.85;;;;;;;10.79;62.46;95976.91;4863011;29;20594;-83
2021/03/28 16:55:21;;;;;;;7.32;6.13;;;;;;;10.79;62.50;95979.50;4872313;29;20478;-81
2021/03/28 16:57:55;;;;;;;9.05;6.30;;;;;;;10.71;62.74;95989.78;4876718;29;20080;-82
2021/03/28 17:00:22;;;;;;;7.45;5.43;;;;;;;10.63;62.93;95987.09;4872210;29;20033;-82
2021/03/28 17:02:48;;;;;;;8.50;5.75;;;;;;;10.62;62.79;95979.47;4845944;29;20071;-82
2021/03/28 17:05:16;;;;;;;7.63;5.97;;;;;;;10.42;64.00;95979.59;4860569;29;20030;-82
2021/03/28 17:08:06;;;;;;;6.95;5.85;;;;;;;10.27;64.84;95977.63;4859962;29;20037;-81
2021/03/28 17:10:32;;;;;;;10.07;6.55;;;;;;;10.26;64.86;95979.41;4843726;29;20028;-82
2021/03/28 17:12:57;;;;;;;9.02;7.18;;;;;;;10.37;64.35;95986.16;4857174;29;20046;-81
2021/03/28 17:15:41;;;;;;;7.35;6.55;;;;;;;10.25;64.65;95989.88;4847825;29;20048;-77
2021/03/28 17:18:16;;;;;;;8.02;7.32;;;;;;;10.17;65.29;95998.38;4851248;29;20085;-75
2021/03/28 17:21:01;;;;;;;8.68;6.63;;;;;;;10.01;65.61;96006.72;4834010;29;20052;-76
2021/03/28 17:23:42;;;;;;;8.65;6.63;;;;;;;10.25;64.38;96000.25;4845402;29;20037;-77
2021/03/28 17:26:23;;;;;;;10.13;6.93;;;;;;;9.93;65.88;96008.34;4849384;29;20044;-77
2021/03/28 17:28:49;;;;;;;7.82;6.95;;;;;;;9.86;66.12;96005.50;4839398;29;20033;-77
2021/03/28 17:31:15;;;;;;;9.00;7.40;;;;;;;9.72;67.37;96007.72;4836021;29;20025;-76